Time;durP1;ratioP1;P1;durP2;ratioP2;P2;SDS_P1;SDS_P2;PMS_P1;PMS_P2;Temp;Humidity;BMP_temperature;BMP_pressure;BME280_temperature;BME280_humidity;BME280_pressure;Samples;Min_cycle;Max_cycle;Signal;HPM_P1;HPM_P2
2021/04/14 00:01:56;;;;;;;1.88;1.65;;;4.70;99.90;;;;;;5075995;28;20213;-79
2021/04/14 00:04:22;;;;;;;6.15;1.38;;;4.70;99.90;;;;;;5075968;28;20227;-80
2021/04/14 00:06:50;;;;;;;3.80;1.90;;;4.50;99.90;;;;;;5072706;28;20203;-79
2021/04/14 00:09:16;;;;;;;9.07;1.95;;;4.50;99.90;;;;;;5068226;28;20219;-81
2021/04/14 00:11:42;;;;;;;4.70;2.63;;;4.50;99.90;;;;;;5071207;28;20206;-79
2021/04/14 00:14:09;;;;;;;2.78;1.52;;;4.60;99.90;;;;;;5070112;28;20210;-80
2021/04/14 00:16:36;;;;;;;4.65;2.20;;;4.50;99.90;;;;;;5064476;28;20206;-81
2021/04/14 00:19:03;;;;;;;12.35;2.53;;;4.50;99.90;;;;;;5078539;22;20235;-86
2021/04/14 00:21:30;;;;;;;2.95;1.70;;;4.60;99.90;;;;;;5061565;28;20203;-87
2021/04/14 00:23:57;;;;;;;4.85;1.85;;;4.30;99.90;;;;;;5066932;28;20207;-86
2021/04/14 00:26:23;;;;;;;4.72;2.13;;;4.40;99.90;;;;;;5076678;28;20194;-86
2021/04/14 00:28:50;;;;;;;8.30;3.53;;;4.20;99.90;;;;;;5067114;28;20288;-86
2021/04/14 00:31:16;;;;;;;4.90;2.20;;;4.30;99.90;;;;;;5063341;28;20210;-86
2021/04/14 00:33:43;;;;;;;6.72;1.60;;;4.10;99.90;;;;;;5059865;28;20263;-86
2021/04/14 00:36:10;;;;;;;4.32;1.90;;;4.20;99.90;;;;;;5059771;28;20206;-86
2021/04/14 00:38:38;;;;;;;3.75;1.60;;;4.20;99.90;;;;;;5059518;28;20308;-85
2021/04/14 00:41:08;;;;;;;9.02;2.08;;;4.10;99.90;;;;;;5058938;28;20677;-85
2021/04/14 00:43:36;;;;;;;2.35;1.73;;;4.10;99.90;;;;;;5058993;28;20261;-86
2021/04/14 00:46:04;;;;;;;7.88;2.13;;;4.20;99.90;;;;;;5058697;28;20211;-86
2021/04/14 00:48:30;;;;;;;8.13;2.55;;;4.20;99.90;;;;;;5059277;28;20255;-85
2021/04/14 00:50:57;;;;;;;5.00;2.28;;;4.10;99.90;;;;;;5059060;28;20209;-86
2021/04/14 00:53:23;;;;;;;4.97;2.05;;;4.10;99.90;;;;;;5057923;28;20609;-85
2021/04/14 00:55:50;;;;;;;8.02;1.98;;;4.10;99.90;;;;;;5058790;28;20207;-86
2021/04/14 00:58:17;;;;;;;6.45;1.85;;;4.10;99.90;;;;;;5058110;28;20223;-85
2021/04/14 01:00:46;;;;;;;7.13;2.65;;;4.00;99.90;;;;;;5057916;28;20219;-86
2021/04/14 01:03:15;;;;;;;6.15;2.33;;;4.00;99.90;;;;;;5058295;28;20207;-85
2021/04/14 01:05:42;;;;;;;5.85;2.85;;;4.00;99.90;;;;;;5058274;28;20202;-86
2021/04/14 01:08:08;;;;;;;5.10;2.30;;;3.90;99.90;;;;;;5057851;28;20581;-86
2021/04/14 01:10:35;;;;;;;2.88;2.50;;;3.80;99.90;;;;;;5061889;28;20195;-85
2021/04/14 01:13:01;;;;;;;4.68;1.55;;;3.90;99.90;;;;;;5071539;28;20269;-86
2021/04/14 01:15:31;;;;;;;7.03;2.55;;;3.80;99.90;;;;;;5058574;28;20665;-86
2021/04/14 01:17:58;;;;;;;5.85;2.10;;;3.80;99.90;;;;;;5057699;28;20234;-86
2021/04/14 01:20:25;;;;;;;2.55;1.95;;;3.80;99.90;;;;;;5059950;28;20214;-86
2021/04/14 01:22:52;;;;;;;4.03;1.95;;;3.70;99.90;;;;;;5066347;28;20187;-86
2021/04/14 01:25:21;;;;;;;3.17;2.25;;;3.70;99.90;;;;;;5057995;28;20218;-86
2021/04/14 01:27:47;;;;;;;6.97;1.80;;;3.70;99.90;;;;;;5056755;28;20227;-86
2021/04/14 01:30:18;;;;;;;6.57;2.72;;;4.10;99.90;;;;;;5056143;28;20210;-86
2021/04/14 01:32:45;;;;;;;3.38;2.10;;;3.90;99.90;;;;;;5056472;28;20600;-86
2021/04/14 01:35:13;;;;;;;5.88;2.30;;;3.80;99.90;;;;;;5057514;28;20553;-86
2021/04/14 01:37:39;;;;;;;7.43;3.42;;;3.70;99.90;;;;;;5060661;28;20203;-87
2021/04/14 01:40:07;;;;;;;4.20;2.03;;;3.80;99.90;;;;;;5075493;28;20234;-86
2021/04/14 01:42:34;;;;;;;15.45;2.60;;;3.80;99.90;;;;;;5074867;28;20207;-86
2021/04/14 01:45:00;;;;;;;7.13;2.03;;;3.70;99.90;;;;;;5076522;28;20200;-86
2021/04/14 01:47:26;;;;;;;9.75;3.10;;;3.30;99.90;;;;;;5076210;28;20198;-86
2021/04/14 01:49:52;;;;;;;13.30;2.75;;;3.60;99.90;;;;;;5064069;28;20553;-86
2021/04/14 01:52:18;;;;;;;3.90;2.30;;;3.60;99.90;;;;;;5057057;28;20681;-86
2021/04/14 01:54:44;;;;;;;8.15;2.75;;;3.60;99.90;;;;;;5057220;28;20207;-86
2021/04/14 01:57:11;;;;;;;7.50;3.25;;;3.60;99.90;;;;;;5057632;28;20202;-86
2021/04/14 01:59:37;;;;;;;7.82;2.70;;;3.50;99.90;;;;;;5059598;28;20262;-85
2021/04/14 02:02:06;;;;;;;5.57;2.47;;;3.40;99.90;;;;;;5061492;28;20205;-86
2021/04/14 02:04:32;;;;;;;8.93;2.90;;;;;;;;;;5058663;28;20365;-86
2021/04/14 02:06:59;;;;;;;8.75;2.72;;;3.50;99.90;;;;;;5057854;28;20202;-85
2021/04/14 02:09:25;;;;;;;6.70;2.67;;;3.20;99.90;;;;;;5059454;28;20300;-86
2021/04/14 02:11:51;;;;;;;6.75;2.60;;;3.50;99.90;;;;;;5061667;28;20218;-86
2021/04/14 02:14:18;;;;;;;7.43;2.25;;;3.40;99.90;;;;;;5061584;28;20221;-86
2021/04/14 02:16:44;;;;;;;4.88;2.60;;;3.40;99.90;;;;;;5060582;28;20203;-86
2021/04/14 02:19:11;;;;;;;4.85;2.10;;;3.40;99.90;;;;;;5061010;28;20245;-85
2021/04/14 02:21:37;;;;;;;6.30;2.70;;;3.30;99.90;;;;;;5071419;28;20275;-85
2021/04/14 02:24:04;;;;;;;8.38;2.55;;;3.30;99.90;;;;;;5063946;28;20214;-85
2021/04/14 02:26:30;;;;;;;4.05;2.08;;;3.20;99.90;;;;;;5060765;28;20206;-85
2021/04/14 02:28:56;;;;;;;6.07;2.20;;;3.30;99.90;;;;;;5060467;28;20230;-86
2021/04/14 02:31:30;;;;;;;8.13;3.05;;;3.20;99.90;;;;;;5061146;28;20203;-86
2021/04/14 02:33:57;;;;;;;6.25;2.60;;;3.20;99.90;;;;;;5061221;28;20281;-86
2021/04/14 02:36:23;;;;;;;10.90;2.80;;;3.20;99.90;;;;;;5061288;28;20203;-86
2021/04/14 02:38:50;;;;;;;8.88;2.50;;;3.20;99.90;;;;;;5061091;28;20273;-85
2021/04/14 02:41:16;;;;;;;4.68;3.80;;;3.20;99.90;;;;;;5061069;28;20219;-86
2021/04/14 02:43:42;;;;;;;8.07;3.13;;;2.80;99.90;;;;;;5060596;28;20199;-86
2021/04/14 02:46:08;;;;;;;5.65;2.08;;;3.20;99.90;;;;;;5060784;28;20210;-85
2021/04/14 02:48:35;;;;;;;9.43;3.08;;;3.10;99.90;;;;;;5060422;28;20254;-85
2021/04/14 02:51:01;;;;;;;4.40;2.10;;;2.90;99.90;;;;;;5060664;28;20249;-86
2021/04/14 02:53:27;;;;;;;10.02;3.47;;;3.00;99.90;;;;;;5060905;28;20203;-85
2021/04/14 02:55:54;;;;;;;8.90;2.90;;;2.90;99.90;;;;;;5061091;28;20203;-85
2021/04/14 02:58:20;;;;;;;12.05;3.05;;;2.90;99.90;;;;;;5060516;28;20941;-87
2021/04/14 03:00:46;;;;;;;9.68;2.28;;;3.00;99.90;;;;;;5061092;28;20219;-85
2021/04/14 03:03:12;;;;;;;10.23;2.30;;;2.90;99.90;;;;;;5064488;28;20214;-86
2021/04/14 03:05:39;;;;;;;9.77;2.50;;;2.90;99.90;;;;;;5070595;28;20213;-87
2021/04/14 03:08:05;;;;;;;9.20;3.65;;;2.90;99.90;;;;;;5061121;28;20254;-86
2021/04/14 03:10:32;;;;;;;8.52;3.08;;;2.80;99.90;;;;;;5059096;28;20225;-86
2021/04/14 03:12:59;;;;;;;5.57;2.30;;;2.70;99.90;;;;;;5060832;28;20210;-86
2021/04/14 03:15:28;;;;;;;11.65;2.83;;;2.80;99.90;;;;;;5062957;28;20202;-86
2021/04/14 03:17:55;;;;;;;12.00;2.90;;;2.90;99.90;;;;;;5072680;28;20435;-86
2021/04/14 03:20:22;;;;;;;9.23;2.90;;;2.80;99.90;;;;;;5059393;28;20207;-86
2021/04/14 03:22:51;;;;;;;14.07;3.50;;;2.70;99.90;;;;;;5060001;28;20206;-86
2021/04/14 03:25:18;;;;;;;8.88;2.80;;;2.70;99.90;;;;;;5060517;28;20217;-85
2021/04/14 03:27:44;;;;;;;7.53;2.67;;;2.60;99.90;;;;;;5070543;28;20219;-85
2021/04/14 03:30:11;;;;;;;6.20;2.92;;;2.50;99.90;;;;;;5062894;28;20241;-86
2021/04/14 03:32:37;;;;;;;6.95;3.05;;;2.50;99.90;;;;;;5064693;28;20210;-86
2021/04/14 03:35:06;;;;;;;9.15;2.25;;;2.50;99.90;;;;;;5059781;28;20385;-86
2021/04/14 03:37:32;;;;;;;9.47;2.90;;;2.80;99.90;;;;;;5062175;28;20454;-86
2021/04/14 03:39:59;;;;;;;12.93;3.45;;;2.50;99.90;;;;;;5072999;28;20461;-86
2021/04/14 03:42:25;;;;;;;14.32;2.70;;;2.60;99.90;;;;;;5075136;28;20202;-86
2021/04/14 03:44:53;;;;;;;4.80;2.70;;;2.60;99.90;;;;;;5063460;28;20207;-86
2021/04/14 03:47:20;;;;;;;10.95;2.53;;;2.40;99.90;;;;;;5076098;28;20191;-86
2021/04/14 03:49:46;;;;;;;4.85;2.15;;;2.50;99.90;;;;;;5077496;28;20223;-86
2021/04/14 03:52:12;;;;;;;6.78;2.30;;;2.60;99.90;;;;;;5073379;28;20210;-86
2021/04/14 03:54:39;;;;;;;9.27;2.38;;;2.60;99.90;;;;;;5077356;28;20198;-85
2021/04/14 03:57:06;;;;;;;11.38;2.58;;;2.20;99.90;;;;;;5077396;28;20197;-85
2021/04/14 03:59:32;;;;;;;9.60;2.70;;;2.40;99.90;;;;;;5068953;28;20223;-86
2021/04/14 04:01:58;;;;;;;7.32;2.65;;;2.50;99.90;;;;;;5062791;28;20199;-86
2021/04/14 04:04:25;;;;;;;6.35;2.50;;;2.50;99.90;;;;;;5059673;28;20199;-86
2021/04/14 04:06:51;;;;;;;9.70;3.60;;;2.30;99.90;;;;;;5065857;28;20226;-86
2021/04/14 04:09:17;;;;;;;7.35;2.90;;;2.30;99.90;;;;;;5064210;28;20733;-86
2021/04/14 04:11:43;;;;;;;17.90;3.33;;;2.30;99.90;;;;;;5060442;28;20203;-86
2021/04/14 04:14:10;;;;;;;6.57;2.72;;;2.30;99.90;;;;;;5060773;28;20202;-85
2021/04/14 04:16:37;;;;;;;10.00;2.55;;;;;;;;;;5061082;28;20907;-85
2021/04/14 04:19:03;;;;;;;9.63;3.08;;;2.20;99.90;;;;;;5066600;28;20440;-86
2021/04/14 04:21:32;;;;;;;8.00;3.38;;;2.20;99.90;;;;;;5058146;28;20218;-86
2021/04/14 04:23:58;;;;;;;22.67;4.25;;;2.40;99.90;;;;;;5059255;28;20199;-86
2021/04/14 04:26:25;;;;;;;10.82;3.20;;;2.20;99.90;;;;;;5075570;28;20210;-86
2021/04/14 04:28:51;;;;;;;15.18;3.42;;;2.30;99.90;;;;;;5076447;28;20227;-86
2021/04/14 04:31:18;;;;;;;9.30;2.92;;;2.30;99.90;;;;;;5076071;28;20199;-86
2021/04/14 04:33:44;;;;;;;9.15;3.15;;;2.20;99.90;;;;;;5076190;28;20278;-86
2021/04/14 04:36:10;;;;;;;11.02;3.70;;;2.20;99.90;;;;;;5076389;28;20210;-86
2021/04/14 04:38:36;;;;;;;3.10;1.27;;;2.20;99.90;;;;;;5073957;28;20227;-86
2021/04/14 04:41:03;;;;;;;6.50;1.98;;;2.10;99.90;;;;;;5072712;28;20219;-86
2021/04/14 04:43:29;;;;;;;23.85;3.78;;;2.20;99.90;;;;;;5067436;28;20207;-86
2021/04/14 04:45:56;;;;;;;8.25;3.10;;;2.20;99.90;;;;;;5060729;28;20203;-86
2021/04/14 04:48:23;;;;;;;10.63;3.60;;;2.20;99.90;;;;;;5061445;28;20763;-85
2021/04/14 04:50:49;;;;;;;8.55;3.05;;;2.30;99.90;;;;;;5060243;28;20211;-86
2021/04/14 04:53:19;;;;;;;10.48;4.13;;;2.20;99.90;;;;;;5065159;28;20203;-85
2021/04/14 04:55:47;;;;;;;8.20;3.20;;;2.20;99.90;;;;;;5057834;28;20199;-85
2021/04/14 04:58:14;;;;;;;10.38;3.67;;;2.20;99.90;;;;;;5070104;28;20226;-86
2021/04/14 05:00:41;;;;;;;8.63;3.00;;;2.20;99.90;;;;;;5070197;28;20230;-86
2021/04/14 05:03:11;;;;;;;11.07;4.95;;;2.30;99.90;;;;;;5058879;28;20203;-86
2021/04/14 05:05:39;;;;;;;8.48;3.10;;;2.40;99.90;;;;;;5058396;28;20267;-86
2021/04/14 05:08:06;;;;;;;12.95;3.33;;;2.30;99.90;;;;;;5065814;28;20207;-86
2021/04/14 05:10:33;;;;;;;6.53;3.30;;;2.30;99.90;;;;;;5059110;28;20203;-87
2021/04/14 05:13:00;;;;;;;7.80;3.28;;;2.20;99.90;;;;;;5058266;28;20203;-86
2021/04/14 05:15:32;;;;;;;13.02;3.90;;;2.10;99.90;;;;;;5059949;28;20203;-85
2021/04/14 05:17:59;;;;;;;9.80;4.22;;;2.30;99.90;;;;;;5058423;28;20269;-85
2021/04/14 05:20:26;;;;;;;8.38;4.25;;;2.70;99.90;;;;;;5057665;28;20720;-86
2021/04/14 05:22:54;;;;;;;10.60;4.15;;;2.30;99.90;;;;;;5059295;28;20273;-85
2021/04/14 05:25:23;;;;;;;9.80;4.13;;;2.30;99.90;;;;;;5059844;28;20199;-85
2021/04/14 05:27:51;;;;;;;7.50;4.72;;;2.50;99.90;;;;;;5058200;28;20238;-85
2021/04/14 05:30:18;;;;;;;6.43;4.00;;;2.60;99.90;;;;;;5060884;28;20670;-85
2021/04/14 05:32:44;;;;;;;7.70;3.58;;;2.50;99.90;;;;;;5058339;28;20214;-86
2021/04/14 05:35:13;;;;;;;6.93;3.60;;;2.70;99.90;;;;;;5058772;28;20203;-84
2021/04/14 05:37:39;;;;;;;14.48;5.47;;;2.80;99.90;;;;;;5059419;28;20202;-85
2021/04/14 05:40:08;;;;;;;14.80;4.50;;;2.80;99.90;;;;;;5060374;28;20629;-86
2021/04/14 05:42:39;;;;;;;8.93;3.95;;;2.80;99.90;;;;;;5058687;28;20201;-85
2021/04/14 05:45:07;;;;;;;7.10;3.47;;;2.70;99.90;;;;;;5061117;28;20233;-86
2021/04/14 05:47:34;;;;;;;9.88;4.47;;;2.90;99.90;;;;;;5069607;28;20723;-85
2021/04/14 05:50:00;;;;;;;10.05;4.43;;;2.60;99.90;;;;;;5069203;28;20249;-85
2021/04/14 05:52:27;;;;;;;12.73;5.10;;;2.80;99.90;;;;;;5060815;28;20203;-87
2021/04/14 05:54:53;;;;;;;13.45;5.90;;;2.60;99.90;;;;;;5058454;28;20211;-86
2021/04/14 05:57:20;;;;;;;15.05;6.13;;;2.90;99.90;;;;;;5062337;28;20203;-86
2021/04/14 05:59:46;;;;;;;8.65;4.78;;;2.70;99.90;;;;;;5068149;28;20219;-86
2021/04/14 06:02:12;;;;;;;12.52;4.97;;;2.60;99.90;;;;;;5064614;28;20188;-86
2021/04/14 06:04:38;;;;;;;15.05;4.55;;;2.50;99.90;;;;;;5060821;28;20207;-86
2021/04/14 06:07:04;;;;;;;8.05;4.35;;;2.70;99.90;;;;;;5061550;28;20214;-86
2021/04/14 06:09:30;;;;;;;12.57;5.53;;;2.60;99.90;;;;;;5060205;28;20251;-86
2021/04/14 06:11:56;;;;;;;9.40;3.97;;;2.60;99.90;;;;;;5060417;28;20332;-86
2021/04/14 06:14:27;;;;;;;7.22;4.35;;;2.50;99.90;;;;;;5060990;28;20203;-86
2021/04/14 06:16:53;;;;;;;7.43;3.83;;;2.40;99.90;;;;;;5070105;28;20191;-85
2021/04/14 06:19:19;;;;;;;14.68;6.00;;;2.60;99.90;;;;;;5071757;28;20265;-87
2021/04/14 06:21:46;;;;;;;17.85;5.38;;;2.80;99.90;;;;;;5069050;28;20210;-88
2021/04/14 06:24:13;;;;;;;6.40;4.85;;;2.60;99.90;;;;;;5064028;28;20215;-88
2021/04/14 06:26:43;;;;;;;10.40;4.50;;;2.70;99.90;;;;;;5071358;28;20214;-85
2021/04/14 06:29:09;;;;;;;12.90;3.88;;;2.80;99.90;;;;;;5060766;28;20222;-86
2021/04/14 06:31:40;;;;;;;10.57;4.43;;;2.90;99.90;;;;;;5067949;28;20207;-86
2021/04/14 06:34:13;;;;;;;12.43;5.60;;;2.90;99.90;;;;;;5067632;28;20187;-86
2021/04/14 06:36:41;;;;;;;7.07;4.88;;;2.90;99.90;;;;;;5059666;28;20210;-86
2021/04/14 06:39:08;;;;;;;7.28;4.32;;;3.00;99.90;;;;;;5058816;28;20235;-87
2021/04/14 06:42:01;;;;;;;11.93;5.50;;;3.00;99.90;;;;;;5058693;28;20728;-86
2021/04/14 06:44:41;;;;;;;20.08;6.03;;;3.20;99.90;;;;;;5074542;28;20222;-87
2021/04/14 06:47:16;;;;;;;12.00;5.30;;;3.00;99.90;;;;;;5075691;28;20262;-88
2021/04/14 06:49:50;;;;;;;9.98;5.15;;;3.20;99.90;;;;;;5075210;28;20223;-87
2021/04/14 06:52:26;;;;;;;11.52;5.53;;;3.30;99.90;;;;;;5075234;28;20251;-88
2021/04/14 06:54:59;;;;;;;14.57;5.15;;;3.40;99.90;;;;;;5069670;28;20191;-88
2021/04/14 06:57:31;;;;;;;12.27;4.93;;;3.40;99.90;;;;;;5067367;28;20198;-87
2021/04/14 07:00:02;;;;;;;13.68;4.97;;;3.50;99.90;;;;;;5065691;28;20251;-87
2021/04/14 07:02:38;;;;;;;15.73;4.72;;;3.40;99.90;;;;;;5062097;28;20255;-87
2021/04/14 07:05:10;;;;;;;13.55;5.40;;;3.80;99.90;;;;;;5061290;28;20183;-88
2021/04/14 07:07:39;;;;;;;11.30;4.80;;;3.50;99.90;;;;;;5065951;28;20195;-86
2021/04/14 07:10:11;;;;;;;17.33;5.45;;;3.80;99.90;;;;;;5063936;28;20195;-87
2021/04/14 07:12:37;;;;;;;15.23;4.97;;;3.90;99.90;;;;;;5080072;28;20274;-86
2021/04/14 07:15:06;;;;;;;11.98;4.75;;;3.90;99.90;;;;;;5072995;28;20203;-87
2021/04/14 07:17:45;;;;;;;7.57;3.63;;;4.40;99.90;;;;;;5067334;28;20194;-87
2021/04/14 07:20:26;;;;;;;14.93;4.28;;;4.00;99.90;;;;;;5077971;28;20199;-86
2021/04/14 07:23:06;;;;;;;8.90;4.22;;;3.80;99.90;;;;;;5079794;28;20179;-87
2021/04/14 07:25:38;;;;;;;11.43;4.68;;;4.20;99.90;;;;;;5071956;28;20206;-87
2021/04/14 07:28:15;;;;;;;5.72;4.07;;;4.20;99.90;;;;;;5070836;28;20211;-86
2021/04/14 07:30:47;;;;;;;9.13;4.45;;;6.30;99.90;;;;;;5078094;28;20213;-87
2021/04/14 07:33:21;;;;;;;10.88;4.43;;;4.20;99.90;;;;;;5073444;28;20175;-86
2021/04/14 07:35:52;;;;;;;9.55;5.63;;;4.40;99.90;;;;;;5077563;28;20193;-86
2021/04/14 07:38:29;;;;;;;4.95;2.15;;;4.50;99.90;;;;;;5080055;28;20218;-86
2021/04/14 07:41:05;;;;;;;12.70;4.60;;;4.50;99.90;;;;;;5080114;28;20262;-87
2021/04/14 07:43:42;;;;;;;8.98;4.88;;;4.40;99.90;;;;;;5079875;28;20369;-86
2021/04/14 07:46:10;;;;;;;8.82;4.53;;;4.30;99.90;;;;;;5080227;28;20243;-88
2021/04/14 07:48:39;;;;;;;16.75;4.55;;;4.60;99.90;;;;;;5079070;28;20219;-86
2021/04/14 07:51:11;;;;;;;7.80;4.60;;;4.80;99.90;;;;;;5080081;28;20194;-90
2021/04/14 07:53:39;;;;;;;15.48;5.13;;;4.90;99.90;;;;;;5079854;28;20214;-89
2021/04/14 07:56:08;;;;;;;13.95;5.55;;;5.10;99.90;;;;;;5079969;28;20194;-86
2021/04/14 07:58:36;;;;;;;11.48;3.97;;;5.00;99.90;;;;;;5079380;28;20230;-87
2021/04/14 08:01:15;;;;;;;13.27;5.53;;;5.10;99.90;;;;;;5078985;28;20225;-86
2021/04/14 08:03:42;;;;;;;13.65;4.55;;;5.50;99.90;;;;;;5079346;28;20221;-87
2021/04/14 08:06:14;;;;;;;8.63;3.90;;;5.60;99.90;;;;;;5078870;28;20214;-87
2021/04/14 08:08:41;;;;;;;12.25;4.35;;;5.30;99.90;;;;;;5078777;28;20213;-87
2021/04/14 08:11:11;;;;;;;9.52;3.42;;;5.10;99.90;;;;;;5077087;28;20218;-87
2021/04/14 08:13:41;;;;;;;11.23;4.47;;;5.30;99.90;;;;;;5069316;28;20237;-86
2021/04/14 08:16:14;;;;;;;6.13;2.55;;;5.40;99.90;;;;;;5066327;28;20257;-86
2021/04/14 08:18:51;;;;;;;7.53;3.72;;;5.50;99.90;;;;;;5063221;28;20230;-86
2021/04/14 08:21:28;;;;;;;9.63;3.30;;;5.40;99.90;;;;;;5072578;28;20218;-86
2021/04/14 08:23:56;;;;;;;6.57;3.80;;;5.70;99.90;;;;;;5064698;28;20191;-85
2021/04/14 08:26:23;;;;;;;11.85;3.85;;;5.60;99.90;;;;;;5063588;28;20245;-86
2021/04/14 08:28:51;;;;;;;8.02;5.03;;;5.60;99.90;;;;;;5066806;28;20229;-85
2021/04/14 08:31:35;;;;;;;7.70;3.30;;;5.80;99.90;;;;;;5061996;28;20700;-86
2021/04/14 08:34:12;;;;;;;8.63;4.05;;;6.00;99.90;;;;;;5062512;28;20194;-86
2021/04/14 08:36:46;;;;;;;12.32;3.83;;;5.70;99.90;;;;;;5063065;28;20187;-86
2021/04/14 08:39:15;;;;;;;12.85;5.22;;;5.70;99.90;;;;;;5060462;28;20211;-86
2021/04/14 08:41:42;;;;;;;9.82;4.30;;;6.00;99.90;;;;;;5060057;28;20230;-86
2021/04/14 08:44:12;;;;;;;10.02;3.05;;;6.10;99.90;;;;;;5062807;28;20207;-86
2021/04/14 08:46:40;;;;;;;7.00;3.25;;;6.40;99.90;;;;;;5077082;28;20218;-85
2021/04/14 08:49:14;;;;;;;12.13;3.58;;;6.20;99.90;;;;;;5076139;28;20253;-85
2021/04/14 08:51:42;;;;;;;9.90;5.07;;;6.30;99.90;;;;;;5067027;28;20275;-85
2021/04/14 08:54:19;;;;;;;13.02;5.13;;;6.50;99.90;;;;;;5065883;28;20203;-85
2021/04/14 08:56:45;;;;;;;10.65;4.53;;;6.50;99.90;;;;;;5062817;28;20569;-86
2021/04/14 08:59:13;;;;;;;10.85;4.57;;;6.30;99.90;;;;;;5060869;28;20223;-85
2021/04/14 09:01:40;;;;;;;11.00;3.95;;;6.20;99.90;;;;;;5060655;28;20219;-86
2021/04/14 09:04:08;;;;;;;6.10;2.75;;;6.40;99.90;;;;;;5059949;28;20252;-86
2021/04/14 09:06:39;;;;;;;12.73;4.28;;;6.30;99.90;;;;;;5059249;28;20256;-85
2021/04/14 09:09:08;;;;;;;14.25;4.13;;;6.20;99.90;;;;;;5061556;28;20230;-85
2021/04/14 09:11:36;;;;;;;6.03;3.35;;;6.70;99.90;;;;;;5063544;28;20203;-85
2021/04/14 09:14:08;;;;;;;8.38;3.03;;;6.50;99.90;;;;;;5061509;28;20199;-86
2021/04/14 09:16:38;;;;;;;9.02;3.10;;;6.60;99.90;;;;;;5068287;28;20187;-86
2021/04/14 09:19:24;;;;;;;11.25;2.83;;;6.50;99.90;;;;;;5060692;28;20226;-87
2021/04/14 09:21:54;;;;;;;5.85;3.08;;;6.70;99.90;;;;;;5061019;28;20229;-86
2021/04/14 09:24:32;;;;;;;7.82;2.75;;;6.80;99.90;;;;;;5059802;28;20302;-87
2021/04/14 09:27:00;;;;;;;12.02;4.47;;;6.90;99.90;;;;;;5065037;28;20217;-86
2021/04/14 09:29:32;;;;;;;10.27;3.75;;;6.70;99.90;;;;;;5069994;28;20229;-87
2021/04/14 09:32:07;;;;;;;4.05;3.00;;;6.90;99.90;;;;;;5077986;28;20175;-85
2021/04/14 09:34:36;;;;;;;4.90;3.20;;;7.10;99.90;;;;;;5078321;28;20182;-85
2021/04/14 09:37:08;;;;;;;6.25;3.40;;;7.40;99.90;;;;;;5078180;28;20183;-86
2021/04/14 09:39:41;;;;;;;11.25;3.33;;;7.30;99.90;;;;;;5078205;28;20227;-85
2021/04/14 09:42:18;;;;;;;6.88;3.08;;;6.80;99.90;;;;;;5078009;28;20238;-86
2021/04/14 09:44:46;;;;;;;8.05;2.88;;;7.00;99.90;;;;;;5078290;28;20183;-86
2021/04/14 09:47:33;;;;;;;6.18;2.55;;;7.30;99.90;;;;;;5078183;28;20194;-86
2021/04/14 09:50:01;;;;;;;7.95;2.72;;;7.60;99.90;;;;;;5065120;28;20270;-86
2021/04/14 09:52:31;;;;;;;3.58;2.40;;;8.00;99.90;;;;;;5062785;28;20214;-86
2021/04/14 09:55:07;;;;;;;2.90;2.40;;;7.60;99.90;;;;;;5059955;28;20191;-86
2021/04/14 09:57:39;;;;;;;5.53;2.60;;;7.20;99.90;;;;;;5059559;28;20186;-86
2021/04/14 10:00:13;;;;;;;4.45;2.53;;;7.20;99.90;;;;;;5059894;28;20211;-86
2021/04/14 10:02:39;;;;;;;6.47;3.28;;;7.10;99.90;;;;;;5062456;28;20183;-86
2021/04/14 10:05:06;;;;;;;8.07;3.30;;;7.00;99.90;;;;;;5067622;28;20203;-86
2021/04/14 10:07:35;;;;;;;3.20;2.65;;;6.60;99.90;;;;;;5060048;28;20211;-86
2021/04/14 10:10:11;;;;;;;6.90;4.03;;;6.70;99.90;;;;;;5059459;28;20225;-86
2021/04/14 10:12:37;;;;;;;6.85;2.83;;;6.60;99.90;;;;;;5059466;28;20191;-86
2021/04/14 10:15:07;;;;;;;3.85;2.50;;;6.60;99.90;;;;;;5075822;28;20191;-85
2021/04/14 10:17:34;;;;;;;6.57;2.78;;;6.90;99.90;;;;;;5077117;28;20230;-86
2021/04/14 10:20:14;;;;;;;8.65;3.10;;;6.60;99.90;;;;;;5076941;28;20218;-85
2021/04/14 10:22:44;;;;;;;5.93;2.33;;;6.70;99.90;;;;;;5077618;28;20259;-86
2021/04/14 10:25:18;;;;;;;4.78;2.72;;;6.80;99.90;;;;;;5077229;28;20231;-86
2021/04/14 10:27:44;;;;;;;4.78;2.80;;;7.40;99.90;;;;;;5075098;28;20199;-87
2021/04/14 10:30:18;;;;;;;8.57;2.55;;;7.20;99.90;;;;;;5068262;28;20207;-85
2021/04/14 10:32:44;;;;;;;8.75;2.90;;;7.30;99.90;;;;;;5062225;28;20195;-85
2021/04/14 10:35:13;;;;;;;10.50;2.70;;;7.50;99.90;;;;;;5065414;28;20682;-85
2021/04/14 10:37:42;;;;;;;4.75;2.72;;;7.50;99.90;;;;;;5064708;28;20203;-86
2021/04/14 10:40:18;;;;;;;4.18;2.10;;;7.30;99.90;;;;;;5066659;28;20223;-86
2021/04/14 10:42:45;;;;;;;4.75;2.22;;;7.40;99.90;;;;;;5063327;28;20187;-86
2021/04/14 10:45:18;;;;;;;4.75;3.10;;;7.20;99.90;;;;;;5073515;28;20203;-86
2021/04/14 10:47:45;;;;;;;5.40;2.20;;;7.60;99.90;;;;;;5080506;28;20175;-86
2021/04/14 10:50:21;;;;;;;6.22;3.50;;;7.40;99.90;;;;;;5066917;28;20207;-86
2021/04/14 10:52:52;;;;;;;4.05;2.45;;;7.50;99.90;;;;;;5064756;28;20653;-86
2021/04/14 10:55:24;;;;;;;10.70;3.53;;;7.50;99.90;;;;;;5076493;28;20230;-86
2021/04/14 10:57:59;;;;;;;4.28;3.30;;;7.50;99.90;;;;;;5073865;28;20223;-86
2021/04/14 11:00:30;;;;;;;5.47;2.33;;;7.80;99.90;;;;;;5066783;28;20264;-85
2021/04/14 11:03:00;;;;;;;7.28;2.75;;;8.00;99.90;;;;;;5074235;28;20222;-85
2021/04/14 11:05:28;;;;;;;3.05;1.73;;;7.70;99.90;;;;;;5079398;28;20199;-86
2021/04/14 11:07:56;;;;;;;5.82;2.58;;;7.90;99.90;;;;;;5063558;28;20241;-86
2021/04/14 11:10:25;;;;;;;3.53;2.10;;;7.70;99.90;;;;;;5064270;28;20252;-85
2021/04/14 11:12:52;;;;;;;6.97;2.40;;;7.60;99.90;;;;;;5063257;28;20210;-86
2021/04/14 11:15:21;;;;;;;5.10;1.85;;;7.60;99.90;;;;;;5063572;28;20209;-85
2021/04/14 11:17:55;;;;;;;8.15;2.20;;;7.60;99.90;;;;;;5061801;28;20242;-85
2021/04/14 11:20:24;;;;;;;6.25;2.58;;;7.70;99.90;;;;;;5062726;28;20218;-85
2021/04/14 11:22:52;;;;;;;3.58;2.60;;;7.80;99.90;;;;;;5061569;28;20207;-86
2021/04/14 11:25:28;;;;;;;3.65;2.20;;;7.70;99.90;;;;;;5061417;28;20276;-86
2021/04/14 11:28:03;;;;;;;2.13;1.92;;;7.90;99.90;;;;;;5061243;28;20234;-86
2021/04/14 11:30:31;;;;;;;5.20;2.22;;;8.00;99.90;;;;;;5065102;28;20572;-87
2021/04/14 11:33:00;;;;;;;2.38;2.15;;;8.30;99.90;;;;;;5061210;28;20364;-86
2021/04/14 11:35:33;;;;;;;3.15;2.08;;;8.30;99.90;;;;;;5061779;28;20207;-86
2021/04/14 11:38:00;;;;;;;2.28;1.60;;;8.00;99.90;;;;;;5072343;28;20211;-85
2021/04/14 11:40:38;;;;;;;2.85;2.15;;;8.10;99.90;;;;;;5079908;28;20218;-85
2021/04/14 11:43:06;;;;;;;5.28;2.05;;;8.40;99.90;;;;;;5069914;28;20187;-85
2021/04/14 11:45:35;;;;;;;1.83;1.70;;;8.60;99.90;;;;;;5067507;28;20545;-86
2021/04/14 11:48:11;;;;;;;5.13;1.73;;;8.80;99.90;;;;;;5066761;28;20458;-85
2021/04/14 11:50:41;;;;;;;4.17;1.90;;;9.00;99.90;;;;;;5066138;28;20441;-86
2021/04/14 11:53:22;;;;;;;6.43;2.55;;;8.40;99.90;;;;;;5064663;28;20804;-85
2021/04/14 11:55:50;;;;;;;2.85;1.58;;;7.90;99.90;;;;;;5063915;28;20187;-85
2021/04/14 11:58:34;;;;;;;5.00;2.10;;;8.10;99.90;;;;;;5062017;28;20218;-85
2021/04/14 12:01:00;;;;;;;2.80;1.60;;;8.40;99.90;;;;;;5060844;28;20214;-85
2021/04/14 12:03:33;;;;;;;5.63;1.83;;;8.10;99.90;;;;;;5064004;28;20236;-84
2021/04/14 12:06:00;;;;;;;6.10;2.38;;;8.10;99.90;;;;;;5064739;28;20194;-86
2021/04/14 12:08:28;;;;;;;3.67;1.70;;;8.20;99.90;;;;;;5064079;28;20710;-86
2021/04/14 12:10:55;;;;;;;2.90;2.00;;;8.20;99.90;;;;;;5064456;28;20218;-85
2021/04/14 12:13:22;;;;;;;5.70;2.37;;;8.00;99.90;;;;;;5063152;28;20446;-85
2021/04/14 12:15:48;;;;;;;4.13;2.10;;;7.90;99.90;;;;;;5061585;28;20434;-85
2021/04/14 12:18:14;;;;;;;4.25;1.85;;;7.30;99.90;;;;;;5060344;28;20276;-85
2021/04/14 12:20:41;;;;;;;3.85;2.15;;;8.10;99.90;;;;;;5061057;28;20230;-85
2021/04/14 12:23:07;;;;;;;2.65;1.88;;;8.10;99.90;;;;;;5063321;28;20215;-85
2021/04/14 12:25:33;;;;;;;3.53;1.65;;;8.20;99.90;;;;;;5063882;28;20528;-85
2021/04/14 12:28:00;;;;;;;3.75;3.45;;;7.80;99.90;;;;;;5066055;28;20219;-86
2021/04/14 12:30:35;;;;;;;5.32;2.75;;;8.00;99.90;;;;;;5068829;28;20237;-85
2021/04/14 12:33:01;;;;;;;3.55;2.80;;;8.10;99.90;;;;;;5062471;28;20213;-85
2021/04/14 12:35:28;;;;;;;2.15;1.95;;;8.20;99.90;;;;;;5061449;28;20233;-85
2021/04/14 12:37:55;;;;;;;3.22;2.10;;;8.40;99.90;;;;;;5064359;28;20705;-85
2021/04/14 12:40:22;;;;;;;7.25;2.33;;;;;;;;;;5064214;28;20223;-85
2021/04/14 12:42:48;;;;;;;3.17;1.95;;;8.30;99.90;;;;;;5064413;28;20264;-87
2021/04/14 12:45:39;;;;;;;5.10;1.90;;;8.20;99.90;;;;;;5064873;28;20203;-86
2021/04/14 12:48:09;;;;;;;3.78;2.03;;;8.10;99.90;;;;;;5066278;28;20705;-85
2021/04/14 12:50:35;;;;;;;2.78;1.90;;;7.70;99.90;;;;;;5064443;28;20190;-85
2021/04/14 12:53:01;;;;;;;3.20;2.15;;;7.90;99.90;;;;;;5066723;28;20235;-85
2021/04/14 12:55:37;;;;;;;3.70;2.00;;;7.60;99.90;;;;;;5069702;28;20211;-84
2021/04/14 12:58:04;;;;;;;4.55;2.15;;;7.20;99.90;;;;;;5062353;28;20233;-85
2021/04/14 13:00:31;;;;;;;6.35;1.95;;;6.70;99.90;;;;;;5062439;28;20246;-85
2021/04/14 13:03:03;;;;;;;1.95;1.73;;;6.40;99.90;;;;;;5061019;28;20596;-85
2021/04/14 13:05:32;;;;;;;3.35;2.60;;;6.20;99.90;;;;;;5058868;28;20650;-86